Time;durP1;ratioP1;P1;durP2;ratioP2;P2;SDS_P1;SDS_P2;PMS_P1;PMS_P2;Temp;Humidity;BMP_temperature;BMP_pressure;BME280_temperature;BME280_humidity;BME280_pressure;Samples;Min_cycle;Max_cycle;Signal;HPM_P1;HPM_P2
2022/01/05 00:01:30;;;;;;;15.00;9.45;;;;;;;5.37;97.24;98500.01;1659875;85;27548;-79
2022/01/05 00:03:56;;;;;;;15.10;9.15;;;;;;;5.34;97.20;98504.41;1657664;85;25740;-79
2022/01/05 00:06:23;;;;;;;14.43;8.55;;;;;;;5.31;97.27;98503.48;1656116;85;25763;-79
2022/01/05 00:08:49;;;;;;;12.00;8.40;;;;;;;5.26;97.44;98504.59;1656107;85;26026;-79
2022/01/05 00:11:15;;;;;;;14.87;8.30;;;;;;;5.27;97.47;98517.36;1658483;85;25912;-79
2022/01/05 00:13:42;;;;;;;11.48;6.95;;;;;;;5.22;97.51;98525.93;1658282;85;27479;-79
2022/01/05 00:16:09;;;;;;;12.28;7.75;;;;;;;5.18;97.68;98519.40;1655957;85;25812;-79
2022/01/05 00:18:36;;;;;;;13.10;8.05;;;;;;;5.16;98.05;98525.42;1657854;85;25903;-80
2022/01/05 00:21:04;;;;;;;11.78;8.00;;;;;;;5.14;98.29;98523.98;1657029;85;25863;-79
2022/01/05 00:23:31;;;;;;;11.85;8.00;;;;;;;5.14;98.56;98524.80;1654901;85;25377;-79
2022/01/05 00:25:59;;;;;;;13.55;8.13;;;;;;;5.13;98.86;98524.48;1662237;85;28054;-80
2022/01/05 00:28:27;;;;;;;18.23;9.43;;;;;;;5.14;99.15;98534.59;1657796;85;25769;-78
2022/01/05 00:30:53;;;;;;;15.18;10.13;;;;;;;5.12;99.42;98532.16;1658340;85;25963;-79
2022/01/05 00:33:19;;;;;;;17.62;10.32;;;;;;;5.13;99.49;98536.42;1657525;85;25851;-80
2022/01/05 00:35:45;;;;;;;17.07;10.23;;;;;;;5.17;99.73;98541.66;1662113;85;26035;-79
2022/01/05 00:38:12;;;;;;;15.83;9.93;;;;;;;5.19;99.85;98540.13;1658523;85;27479;-79
2022/01/05 00:40:38;;;;;;;17.27;10.88;;;;;;;5.20;99.99;98540.41;1655659;85;25942;-79
2022/01/05 00:43:04;;;;;;;20.97;11.63;;;;;;;5.20;100.00;98543.07;1659758;85;25915;-79
2022/01/05 00:45:30;;;;;;;19.12;11.73;;;;;;;5.18;100.00;98544.61;1657452;85;26567;-79
2022/01/05 00:47:56;;;;;;;21.60;12.35;;;;;;;5.21;100.00;98551.36;1658000;85;25920;-79
2022/01/05 00:50:23;;;;;;;22.42;12.55;;;;;;;5.22;100.00;98556.95;1659608;85;28277;-79
2022/01/05 00:52:49;;;;;;;23.05;12.95;;;;;;;5.22;100.00;98563.59;1660051;85;25377;-79
2022/01/05 00:55:16;;;;;;;23.85;12.55;;;;;;;5.22;100.00;98566.24;1655663;85;26272;-80
2022/01/05 00:57:42;;;;;;;23.10;13.32;;;;;;;5.23;100.00;98574.53;1658780;85;26223;-79
2022/01/05 01:00:10;;;;;;;25.27;13.55;;;;;;;5.22;100.00;98568.90;1658244;85;25942;-79
2022/01/05 01:02:36;;;;;;;32.53;14.43;;;;;;;5.23;100.00;98578.01;1656807;86;27480;-79
2022/01/05 01:05:03;;;;;;;24.00;13.05;;;;;;;5.25;100.00;98579.12;1655972;85;26318;-79
2022/01/05 01:07:29;;;;;;;23.92;13.50;;;;;;;5.26;100.00;98582.89;1656920;86;25851;-79
2022/01/05 01:09:55;;;;;;;24.92;12.53;;;;;;;5.28;100.00;98578.73;1658380;85;25917;-79
2022/01/05 01:12:22;;;;;;;21.97;12.47;;;;;;;5.29;100.00;98573.72;1657469;85;26383;-79
2022/01/05 01:14:48;;;;;;;19.42;11.97;;;;;;;5.31;100.00;98576.48;1659648;85;27475;-79
2022/01/05 01:17:14;;;;;;;23.22;13.35;;;;;;;5.34;100.00;98582.73;1658508;85;25918;-79
2022/01/05 01:19:40;;;;;;;22.22;12.82;;;;;;;5.35;100.00;98588.33;1657734;85;25987;-79
2022/01/05 01:22:06;;;;;;;21.17;13.03;;;;;;;5.37;100.00;98588.11;1656172;85;26029;-78
2022/01/05 01:24:32;;;;;;;20.27;11.78;;;;;;;5.40;100.00;98578.43;1659590;85;26589;-79
2022/01/05 01:26:59;;;;;;;25.70;15.30;;;;;;;5.42;100.00;98585.69;1658582;85;27552;-79
2022/01/05 01:29:25;;;;;;;20.17;11.83;;;;;;;5.44;100.00;98584.97;1657290;85;26377;-79
2022/01/05 01:31:51;;;;;;;24.10;13.45;;;;;;;5.43;100.00;98581.48;1660094;85;26062;-79
2022/01/05 01:34:18;;;;;;;23.00;13.80;;;;;;;5.45;100.00;98586.08;1652844;85;26556;-78
2022/01/05 01:36:44;;;;;;;25.30;14.40;;;;;;;5.48;100.00;98592.83;1659865;85;25815;-80
2022/01/05 01:39:10;;;;;;;22.55;13.78;;;;;;;5.51;100.00;98588.95;1657580;85;26950;-79
2022/01/05 01:41:37;;;;;;;20.85;13.05;;;;;;;5.53;100.00;98601.02;1660854;85;25767;-79
2022/01/05 01:44:04;;;;;;;21.48;13.43;;;;;;;5.54;100.00;98593.34;1656877;85;25945;-79
2022/01/05 01:46:31;;;;;;;27.90;15.95;;;;;;;5.55;100.00;98594.16;1658459;85;26047;-79
2022/01/05 01:48:57;;;;;;;23.75;13.75;;;;;;;5.56;100.00;98591.83;1655614;85;25543;-79
2022/01/05 01:51:23;;;;;;;22.70;13.45;;;;;;;5.57;100.00;98594.78;1658009;85;28375;-79
2022/01/05 01:53:50;;;;;;;26.33;15.15;;;;;;;5.58;100.00;98589.79;1658585;85;25361;-79
2022/01/05 01:56:20;;;;;;;25.00;14.50;;;;;;;5.59;100.00;98593.56;1655293;86;26497;-80
2022/01/05 01:58:48;;;;;;;25.68;16.10;;;;;;;5.60;100.00;98588.57;1660059;85;25794;-79
2022/01/05 02:01:16;;;;;;;30.10;17.40;;;;;;;5.62;100.00;98589.18;1659807;85;25759;-79
2022/01/05 02:03:42;;;;;;;30.70;17.45;;;;;;;5.66;100.00;98598.87;1656755;86;27494;-80
2022/01/05 02:06:09;;;;;;;32.33;15.83;;;;;;;5.68;100.00;98608.78;1660140;85;25912;-78
2022/01/05 02:08:36;;;;;;;24.50;15.38;;;;;;;5.69;100.00;98621.85;1656935;85;26042;-79
2022/01/05 02:11:06;;;;;;;25.57;15.65;;;;;;;5.69;100.00;98623.18;1656451;86;25901;-79
2022/01/05 02:13:32;;;;;;;27.22;15.18;;;;;;;5.71;100.00;98619.02;1657914;85;26168;-80
2022/01/05 02:15:58;;;;;;;30.12;16.27;;;;;;;5.72;100.00;98617.98;1658202;85;27555;-80
2022/01/05 02:21:03;;;;;;;28.40;16.65;;;;;;;5.75;100.00;98605.63;1655517;86;25699;-79
2022/01/05 02:23:29;;;;;;;26.45;16.00;;;;;;;5.77;100.00;98601.75;1655182;85;25950;-79
2022/01/05 02:25:55;;;;;;;29.72;15.80;;;;;;;5.78;100.00;98605.20;1661208;85;25829;-79
2022/01/05 02:28:22;;;;;;;26.45;16.60;;;;;;;5.79;100.00;98605.52;1664008;85;28271;-80
2022/01/05 02:30:52;;;;;;;27.65;16.52;;;;;;;5.81;100.00;98610.12;1654545;85;25816;-79
2022/01/05 02:33:20;;;;;;;28.25;15.93;;;;;;;5.82;100.00;98612.56;1657806;85;26022;-79
2022/01/05 02:35:47;;;;;;;29.72;17.80;;;;;;;5.82;100.00;98619.70;1655280;86;25866;-79
2022/01/05 02:38:19;;;;;;;28.92;17.77;;;;;;;5.84;100.00;98625.16;1655328;85;25347;-80
2022/01/05 02:40:46;;;;;;;27.45;16.00;;;;;;;5.85;100.00;98620.17;1656886;85;27471;-79
2022/01/05 02:43:12;;;;;;;28.40;17.48;;;;;;;5.87;100.00;98624.77;1657520;85;26470;-79
2022/01/05 02:45:39;;;;;;;26.37;17.67;;;;;;;5.87;100.00;98623.44;1658308;85;25828;-79
2022/01/05 02:48:05;;;;;;;27.65;17.50;;;;;;;5.88;100.00;98619.73;1657475;85;26542;-79
2022/01/05 02:50:32;;;;;;;25.88;17.25;;;;;;;5.89;100.00;98632.02;1655406;85;25847;-79
2022/01/05 02:52:58;;;;;;;29.57;18.90;;;;;;;5.91;100.00;98643.77;1655043;86;27453;-79
2022/01/05 02:55:24;;;;;;;28.15;16.40;;;;;;;5.92;100.00;98639.56;1656211;86;25862;-79
2022/01/05 02:57:51;;;;;;;31.12;17.75;;;;;;;5.95;100.00;98643.66;1658123;85;26490;-79
2022/01/05 03:00:17;;;;;;;32.88;18.12;;;;;;;5.96;100.00;98647.45;1656275;85;26289;-80
2022/01/05 03:02:44;;;;;;;31.33;20.30;;;;;;;5.97;100.00;98654.39;1657213;85;26162;-80
2022/01/05 03:05:10;;;;;;;31.17;18.92;;;;;;;6.00;100.00;98659.31;1654763;85;27481;-79
2022/01/05 03:07:39;;;;;;;31.50;19.57;;;;;;;6.00;100.00;98661.97;1657875;85;25822;-79
2022/01/05 03:10:09;;;;;;;33.10;20.15;;;;;;;5.99;100.00;98658.16;1656888;85;25961;-79
2022/01/05 03:12:38;;;;;;;32.40;20.85;;;;;;;6.00;100.00;98661.14;1659735;85;26486;-79
2022/01/05 03:15:05;;;;;;;33.33;21.75;;;;;;;6.01;100.00;98662.77;1657935;85;25936;-79
2022/01/05 03:17:32;;;;;;;28.60;19.20;;;;;;;6.02;100.00;98671.05;1657163;85;28333;-79
2022/01/05 03:19:58;;;;;;;27.48;19.45;;;;;;;6.04;100.00;98661.03;1655671;85;25310;-80
2022/01/05 03:22:24;;;;;;;30.25;19.37;;;;;;;6.05;100.00;98651.52;1657827;85;25789;-79
2022/01/05 03:24:51;;;;;;;33.65;21.57;;;;;;;6.05;100.00;98648.86;1660554;85;25835;-79
2022/01/05 03:27:17;;;;;;;31.27;19.42;;;;;;;6.05;100.00;98641.42;1658792;85;25982;-79
2022/01/05 03:29:43;;;;;;;29.23;20.17;;;;;;;6.04;100.00;98638.45;1659082;85;27470;-79
2022/01/05 03:32:10;;;;;;;31.30;19.45;;;;;;;6.02;100.00;98647.96;1657505;85;25301;-79
2022/01/05 03:34:37;;;;;;;30.23;20.20;;;;;;;6.01;100.00;98637.52;1655556;85;25850;-79
2022/01/05 03:37:04;;;;;;;29.02;18.98;;;;;;;6.01;100.00;98623.72;1660189;85;26556;-79
2022/01/05 03:39:30;;;;;;;31.48;20.68;;;;;;;5.98;100.00;98611.38;1660445;85;26330;-79
2022/01/05 03:41:56;;;;;;;33.90;20.70;;;;;;;5.95;100.00;98610.44;1658550;85;28302;-79
2022/01/05 03:44:23;;;;;;;31.10;19.15;;;;;;;5.95;100.00;98629.86;1659212;85;25569;-79
2022/01/05 03:46:50;;;;;;;28.25;19.12;;;;;;;5.95;100.00;98633.85;1658145;85;25757;-80
2022/01/05 03:49:17;;;;;;;26.97;19.48;;;;;;;5.92;100.00;98628.94;1655684;85;25783;-79
2022/01/05 03:51:45;;;;;;;31.37;21.15;;;;;;;5.94;100.00;98633.56;1661357;85;26035;-80
2022/01/05 03:54:12;;;;;;;32.15;20.35;;;;;;;5.94;100.00;98640.70;1659450;85;27452;-79
2022/01/05 03:56:38;;;;;;;32.10;20.70;;;;;;;5.92;100.00;98642.22;1659040;85;26511;-79
2022/01/05 03:59:04;;;;;;;33.08;23.02;;;;;;;5.90;100.00;98640.81;1655308;85;26444;-79
2022/01/05 04:01:30;;;;;;;32.03;19.95;;;;;;;5.88;100.00;98635.69;1659920;85;26227;-79
2022/01/05 04:03:56;;;;;;;30.92;21.05;;;;;;;5.87;100.00;98631.41;1656498;85;25967;-79
2022/01/05 04:06:23;;;;;;;27.98;19.98;;;;;;;5.83;100.00;98632.81;1656894;86;27003;-79
2022/01/05 04:08:49;;;;;;;30.45;20.77;;;;;;;5.82;100.00;98635.64;1658657;85;26467;-79
2022/01/05 04:11:15;;;;;;;30.57;20.27;;;;;;;5.78;100.00;98632.59;1656838;85;25775;-79
2022/01/05 04:13:41;;;;;;;30.60;21.25;;;;;;;5.78;100.00;98631.77;1661447;85;26532;-79
2022/01/05 04:16:08;;;;;;;25.77;19.12;;;;;;;5.77;100.00;98637.61;1659636;85;26009;-79
2022/01/05 04:18:34;;;;;;;32.38;19.87;;;;;;;5.76;100.00;98639.95;1660068;85;28314;-79
2022/01/05 04:21:00;;;;;;;31.52;20.88;;;;;;;5.73;100.00;98652.30;1656570;86;26150;-80
2022/01/05 04:23:26;;;;;;;30.20;20.43;;;;;;;5.72;100.00;98644.03;1654614;85;25978;-79
2022/01/05 04:25:53;;;;;;;32.85;20.80;;;;;;;5.75;100.00;98649.45;1664706;85;25965;-79
2022/01/05 04:28:21;;;;;;;32.65;21.02;;;;;;;5.75;100.00;98653.44;1655006;85;25357;-79
2022/01/05 04:30:47;;;;;;;29.23;19.73;;;;;;;5.74;100.00;98656.60;1655529;85;27481;-79
2022/01/05 04:33:13;;;;;;;27.70;19.60;;;;;;;5.71;100.00;98664.97;1656108;86;25850;-80
2022/01/05 04:35:39;;;;;;;30.77;19.75;;;;;;;5.72;100.00;98663.96;1656008;85;25777;-79
2022/01/05 04:38:05;;;;;;;28.00;19.50;;;;;;;5.71;100.00;98664.17;1656262;85;26331;-79
2022/01/05 04:40:32;;;;;;;26.65;18.25;;;;;;;5.71;100.00;98667.63;1657820;85;26004;-79
2022/01/05 04:42:59;;;;;;;32.53;20.55;;;;;;;5.71;100.00;98656.20;1657700;85;27478;-79
2022/01/05 04:45:25;;;;;;;26.33;18.65;;;;;;;5.71;100.00;98650.89;1656914;86;25831;-79
2022/01/05 04:47:51;;;;;;;26.60;19.27;;;;;;;5.71;100.00;98655.67;1650726;85;25978;-80
2022/01/05 04:50:18;;;;;;;28.07;18.62;;;;;;;5.73;100.00;98671.42;1659113;85;26606;-80
2022/01/05 04:52:44;;;;;;;32.20;19.85;;;;;;;5.74;100.00;98666.41;1659992;85;25950;-79
2022/01/05 04:55:10;;;;;;;29.52;21.23;;;;;;;5.75;100.00;98671.50;1656922;86;27540;-79
2022/01/05 04:57:38;;;;;;;26.62;19.10;;;;;;;5.76;100.00;98661.70;1657260;85;25803;-79
2022/01/05 05:00:06;;;;;;;24.92;19.75;;;;;;;5.77;100.00;98660.70;1655941;86;25832;-78
2022/01/05 05:02:32;;;;;;;26.90;18.65;;;;;;;5.78;100.00;98663.64;1656637;86;25993;-79
2022/01/05 05:04:58;;;;;;;26.95;18.02;;;;;;;5.78;100.00;98657.83;1658251;85;25835;-79
2022/01/05 05:07:25;;;;;;;25.68;17.45;;;;;;;5.78;100.00;98648.53;1654169;85;28201;-79
2022/01/05 05:09:51;;;;;;;25.32;18.35;;;;;;;5.80;100.00;98642.50;1656891;86;25860;-79
2022/01/05 05:12:17;;;;;;;25.57;17.57;;;;;;;5.79;100.00;98635.57;1655866;85;25938;-80
2022/01/05 05:14:44;;;;;;;25.88;17.45;;;;;;;5.78;100.00;98647.20;1657809;85;25862;-79
2022/01/05 05:17:11;;;;;;;24.40;17.62;;;;;;;5.78;100.00;98658.33;1658589;85;26008;-79
2022/01/05 05:19:37;;;;;;;21.93;14.95;;;;;;;5.79;100.00;98675.92;1658410;85;27473;-79
2022/01/05 05:22:04;;;;;;;24.05;16.93;;;;;;;5.80;100.00;98686.34;1657371;85;26107;-79
2022/01/05 05:24:30;;;;;;;22.95;17.17;;;;;;;5.80;100.00;98685.51;1658446;85;25893;-79
2022/01/05 05:26:56;;;;;;;24.82;16.97;;;;;;;5.79;100.00;98675.42;1656900;85;25769;-79
2022/01/05 05:29:22;;;;;;;22.82;17.00;;;;;;;5.80;100.00;98694.81;1657859;85;25997;-79
2022/01/05 05:31:48;;;;;;;22.35;15.88;;;;;;;5.79;100.00;98692.69;1656498;86;28067;-79
2022/01/05 05:34:15;;;;;;;25.82;16.90;;;;;;;5.79;100.00;98690.03;1657458;85;25928;-79
2022/01/05 05:36:41;;;;;;;26.42;17.77;;;;;;;5.80;100.00;98689.50;1651800;85;26395;-79
2022/01/05 05:39:07;;;;;;;24.12;16.75;;;;;;;5.82;100.00;98700.73;1650876;86;26638;-79
2022/01/05 05:41:33;;;;;;;27.02;19.10;;;;;;;5.82;100.00;98709.53;1656760;85;25831;-79
2022/01/05 05:44:00;;;;;;;27.10;18.70;;;;;;;5.83;100.00;98720.98;1655642;85;27475;-79
2022/01/05 05:46:26;;;;;;;26.20;17.98;;;;;;;5.85;100.00;98728.27;1667796;85;25735;-79
2022/01/05 05:48:52;;;;;;;25.35;17.77;;;;;;;5.87;100.00;98731.55;1660897;85;25762;-79
2022/01/05 05:51:18;;;;;;;24.23;17.60;;;;;;;5.86;100.00;98738.69;1652878;85;26583;-78
2022/01/05 05:53:45;;;;;;;26.05;18.40;;;;;;;5.91;100.00;98748.22;1641910;86;25981;-80
2022/01/05 05:56:11;;;;;;;28.92;19.82;;;;;;;5.92;100.00;98739.20;1643903;86;28361;-79
2022/01/05 05:58:37;;;;;;;28.73;18.98;;;;;;;5.96;100.00;98738.31;1660701;85;26482;-79
2022/01/05 06:01:04;;;;;;;27.55;17.77;;;;;;;5.98;100.00;98741.08;1662676;85;25849;-80
2022/01/05 06:03:30;;;;;;;28.25;18.70;;;;;;;5.98;99.88;98736.27;1663368;85;25809;-79
2022/01/05 06:05:56;;;;;;;27.87;18.57;;;;;;;5.96;99.76;98739.14;1659329;85;25874;-79
2022/01/05 06:08:22;;;;;;;26.15;17.87;;;;;;;5.95;99.85;98741.47;1667033;85;27474;-79
2022/01/05 06:10:48;;;;;;;27.73;19.05;;;;;;;5.93;99.68;98743.52;1641743;86;25379;-80
2022/01/05 06:13:15;;;;;;;26.52;21.17;;;;;;;5.91;99.71;98749.55;1657752;85;26557;-79
2022/01/05 06:15:41;;;;;;;26.40;19.40;;;;;;;5.91;99.71;98760.17;1656689;85;26251;-78
2022/01/05 06:18:07;;;;;;;27.45;19.10;;;;;;;5.91;99.68;98760.67;1658306;85;25829;-78
2022/01/05 06:20:33;;;;;;;27.30;19.40;;;;;;;5.90;99.62;98768.36;1668446;85;27518;-79
2022/01/05 06:22:59;;;;;;;27.07;18.48;;;;;;;5.88;99.51;98766.41;1659121;85;25757;-78
2022/01/05 06:25:26;;;;;;;26.85;20.30;;;;;;;5.86;99.57;98767.13;1653263;85;26198;-79
2022/01/05 06:27:52;;;;;;;30.23;20.60;;;;;;;5.87;99.66;98774.88;1654303;85;25774;-79
2022/01/05 06:30:18;;;;;;;27.32;20.12;;;;;;;5.89;99.77;98777.33;1650661;85;25918;-78
2022/01/05 06:32:47;;;;;;;25.52;18.12;;;;;;;5.91;99.83;98784.09;1650075;86;28376;-79
2022/01/05 06:35:15;;;;;;;31.12;20.25;;;;;;;5.95;99.79;98782.66;1656182;85;25916;-79
2022/01/05 06:37:42;;;;;;;36.48;22.37;;;;;;;5.97;99.72;98772.65;1654028;85;25908;-78
2022/01/05 06:40:09;;;;;;;51.98;26.45;;;;;;;6.01;99.65;98777.04;1663901;85;25854;-78
2022/01/05 06:42:35;;;;;;;56.77;26.70;;;;;;;6.02;99.63;98770.21;1660382;85;25400;-78
2022/01/05 06:45:03;;;;;;;57.95;28.47;;;;;;;6.02;99.46;98772.88;1664949;85;28295;-78
2022/01/05 06:47:29;;;;;;;50.58;26.35;;;;;;;6.02;99.41;98787.48;1657905;85;25910;-79
2022/01/05 06:49:55;;;;;;;41.90;23.12;;;;;;;6.01;99.36;98786.34;1660910;85;25323;-79
2022/01/05 06:52:22;;;;;;;40.90;21.77;;;;;;;6.00;99.35;98780.73;1657584;85;26601;-79
2022/01/05 06:54:48;;;;;;;32.90;20.40;;;;;;;6.01;99.41;98785.84;1658415;85;25965;-79
2022/01/05 06:57:14;;;;;;;37.65;22.15;;;;;;;5.97;99.15;98784.61;1661986;85;28280;-80
2022/01/05 06:59:40;;;;;;;33.55;21.00;;;;;;;5.97;99.40;98780.62;1660352;85;25999;-79
2022/01/05 07:02:07;;;;;;;35.28;21.23;;;;;;;6.00;99.43;98784.22;1655791;85;25963;-79
2022/01/05 07:04:33;;;;;;;30.62;19.82;;;;;;;6.00;99.42;98784.22;1656777;85;25872;-80
2022/01/05 07:06:59;;;;;;;30.25;19.07;;;;;;;6.01;99.34;98777.86;1654644;86;25963;-79
2022/01/05 07:09:25;;;;;;;33.18;20.20;;;;;;;6.00;99.31;98764.78;1658446;85;27512;-79
2022/01/05 07:11:52;;;;;;;33.40;20.05;;;;;;;6.02;99.40;98767.55;1657672;85;26728;-79
2022/01/05 07:14:18;;;;;;;30.57;20.37;;;;;;;6.02;99.21;98766.23;1655342;86;26618;-80
2022/01/05 07:16:44;;;;;;;25.05;18.37;;;;;;;6.02;99.21;98774.20;1656944;86;26591;-80
2022/01/05 07:19:11;;;;;;;26.90;19.30;;;;;;;6.03;99.19;98775.03;1657021;85;25887;-79
2022/01/05 07:21:37;;;;;;;28.98;19.42;;;;;;;6.04;99.23;98768.67;1657415;85;27506;-80
2022/01/05 07:24:04;;;;;;;26.60;19.37;;;;;;;6.04;99.14;98770.00;1656811;86;25966;-79
2022/01/05 07:26:31;;;;;;;25.37;18.82;;;;;;;6.05;99.22;98779.09;1657995;85;25781;-79
2022/01/05 07:28:58;;;;;;;26.10;19.60;;;;;;;6.08;99.25;98780.03;1656995;86;26660;-80
2022/01/05 07:31:24;;;;;;;27.52;18.85;;;;;;;6.08;99.06;98789.34;1661561;85;25845;-80
2022/01/05 07:33:50;;;;;;;26.37;19.85;;;;;;;6.08;99.13;98791.99;1655042;86;27550;-79
2022/01/05 07:36:16;;;;;;;32.73;20.48;;;;;;;6.10;99.12;98789.13;1656041;86;25859;-80
2022/01/05 07:38:43;;;;;;;29.85;21.40;;;;;;;6.11;99.17;98790.77;1656958;86;25925;-79
2022/01/05 07:41:09;;;;;;;29.05;21.12;;;;;;;6.11;98.97;98775.66;1656908;85;25529;-79
2022/01/05 07:43:36;;;;;;;31.70;23.05;;;;;;;6.09;98.88;98775.00;1655500;85;25955;-79
2022/01/05 07:46:02;;;;;;;31.02;20.65;;;;;;;6.13;99.10;98775.44;1659438;85;27981;-79
2022/01/05 07:48:28;;;;;;;24.05;19.10;;;;;;;6.15;98.99;98779.55;1658017;85;26592;-79
2022/01/05 07:50:55;;;;;;;27.32;20.05;;;;;;;6.13;98.57;98784.24;1662191;85;25874;-80
2022/01/05 07:53:21;;;;;;;30.97;19.85;;;;;;;6.14;98.50;98787.19;1663009;85;27154;-80
2022/01/05 07:55:47;;;;;;;25.10;16.37;;;;;;;6.11;98.33;98777.48;1664312;85;25987;-79
2022/01/05 07:58:14;;;;;;;18.67;14.87;;;;;;;6.11;98.27;98781.47;1657111;85;27483;-80
2022/01/05 08:00:40;;;;;;;20.75;14.33;;;;;;;6.12;98.22;98779.11;1661883;85;26094;-79
2022/01/05 08:03:07;;;;;;;22.35;14.83;;;;;;;6.12;97.85;98770.62;1666109;85;25933;-79
2022/01/05 08:05:33;;;;;;;22.52;14.53;;;;;;;6.10;97.58;98759.38;1664393;85;26542;-79
2022/01/05 08:07:59;;;;;;;22.05;15.78;;;;;;;6.07;97.42;98759.77;1661163;85;25842;-79
2022/01/05 08:10:25;;;;;;;22.35;15.38;;;;;;;6.07;97.68;98758.98;1655311;85;27479;-79
2022/01/05 08:12:51;;;;;;;25.00;15.25;;;;;;;6.10;97.72;98758.56;1656616;85;26123;-80
2022/01/05 08:15:18;;;;;;;23.52;15.30;;;;;;;6.12;97.80;98763.98;1660037;85;25393;-80
2022/01/05 08:17:44;;;;;;;20.52;14.28;;;;;;;6.14;97.81;98760.61;1655236;86;26564;-80
2022/01/05 08:20:12;;;;;;;17.73;12.10;;;;;;;6.18;97.88;98755.19;1658599;85;26114;-79
2022/01/05 08:22:42;;;;;;;20.25;13.60;;;;;;;6.22;97.82;98754.30;1658022;86;27545;-80
2022/01/05 08:25:10;;;;;;;22.07;13.60;;;;;;;6.26;97.85;98748.88;1656783;86;25628;-79
2022/01/05 08:27:45;;;;;;;19.32;14.18;;;;;;;6.32;97.84;98756.03;1654038;85;26250;-79
2022/01/05 08:30:08;;;;;;;22.00;15.48;;;;;;;6.35;97.77;98758.26;1656608;85;25946;-79
2022/01/05 08:32:35;;;;;;;26.20;16.42;;;;;;;6.37;97.71;98758.08;1657718;85;25927;-79
2022/01/05 08:35:01;;;;;;;26.52;18.50;;;;;;;6.39;97.86;98766.16;1660057;85;27473;-79
2022/01/05 08:37:27;;;;;;;25.40;19.25;;;;;;;6.41;97.98;98761.45;1668570;85;25842;-79
2022/01/05 08:39:53;;;;;;;27.80;19.92;;;;;;;6.43;97.94;98758.58;1641430;86;25834;-80
2022/01/05 08:42:19;;;;;;;27.27;20.08;;;;;;;6.40;97.99;98762.47;1658706;85;25908;-79
2022/01/05 08:44:46;;;;;;;27.82;19.45;;;;;;;6.41;98.13;98766.77;1656197;86;25997;-80
2022/01/05 08:47:12;;;;;;;24.23;18.37;;;;;;;6.41;98.20;98769.94;1656713;85;28356;-79
2022/01/05 08:49:38;;;;;;;26.65;18.57;;;;;;;6.41;98.33;98769.94;1656382;85;25850;-80
2022/01/05 08:52:05;;;;;;;29.77;18.30;;;;;;;6.42;98.34;98771.56;1656220;86;25898;-79
2022/01/05 08:54:31;;;;;;;24.43;18.92;;;;;;;6.41;98.35;98764.12;1655309;86;25812;-79
2022/01/05 08:56:57;;;;;;;23.18;17.12;;;;;;;6.42;98.49;98765.73;1659460;85;26002;-79
2022/01/05 08:59:23;;;;;;;22.50;17.57;;;;;;;6.45;98.61;98758.69;1658368;85;27463;-79
2022/01/05 09:01:50;;;;;;;28.25;18.37;;;;;;;6.46;98.66;98758.98;1657819;85;25837;-78
2022/01/05 09:04:17;;;;;;;21.93;16.70;;;;;;;6.50;98.52;98766.06;1655552;86;25578;-79
2022/01/05 09:06:43;;;;;;;26.12;18.02;;;;;;;6.47;98.30;98766.45;1656681;85;25850;-79
2022/01/05 09:09:10;;;;;;;27.75;18.05;;;;;;;6.48;98.41;98772.09;1658441;85;25813;-79
2022/01/05 09:11:37;;;;;;;25.57;17.52;;;;;;;6.49;98.48;98771.88;1654936;86;27642;-79
2022/01/05 09:14:03;;;;;;;24.18;15.45;;;;;;;6.49;98.19;98770.55;1657805;85;25917;-80
2022/01/05 09:16:30;;;;;;;24.77;16.70;;;;;;;6.49;98.37;98767.06;1655886;85;25805;-79
2022/01/05 09:18:56;;;;;;;21.27;16.17;;;;;;;6.50;98.27;98772.70;1660072;85;26580;-80
2022/01/05 09:21:22;;;;;;;20.68;16.27;;;;;;;6.48;98.14;98776.09;1657862;85;25886;-79
2022/01/05 09:23:50;;;;;;;24.60;16.77;;;;;;;6.45;98.16;98768.00;1657826;85;27456;-79
2022/01/05 09:26:16;;;;;;;23.50;16.65;;;;;;;6.46;98.21;98768.83;1659615;85;25829;-79
2022/01/05 09:28:44;;;;;;;22.40;16.70;;;;;;;6.47;98.37;98773.10;1655728;86;26550;-79
2022/01/05 09:31:12;;;;;;;26.50;17.87;;;;;;;6.48;98.42;98780.08;1655488;85;25827;-79
2022/01/05 09:33:39;;;;;;;23.35;16.17;;;;;;;6.50;98.41;98773.50;1657039;85;25961;-79
2022/01/05 09:36:13;;;;;;;20.95;15.72;;;;;;;6.50;98.31;98761.53;1656407;85;27717;-80
2022/01/05 09:44:09;;;;;;;21.85;16.00;;;;;;;6.53;98.40;98756.32;1656257;85;26011;-80
2022/01/05 09:47:10;;;;;;;23.55;17.15;;;;;;;6.52;98.29;98755.49;1654633;85;25740;-79
2022/01/05 09:49:50;;;;;;;23.83;16.65;;;;;;;6.53;98.36;98761.14;1657784;85;27476;-79
2022/01/05 09:52:16;;;;;;;26.00;17.05;;;;;;;6.52;98.29;98765.34;1659031;85;25512;-78
2022/01/05 09:54:42;;;;;;;22.07;16.27;;;;;;;6.50;98.26;98768.18;1639833;86;25761;-79
2022/01/05 09:57:11;;;;;;;23.67;16.95;;;;;;;6.50;98.08;98773.50;1642310;86;25803;-79
2022/01/05 09:59:39;;;;;;;22.40;16.07;;;;;;;6.49;98.05;98781.19;1656764;85;25917;-79
2022/01/05 10:02:07;;;;;;;24.07;15.90;;;;;;;6.50;97.89;98771.38;1625376;86;28338;-79
2022/01/05 10:04:36;;;;;;;22.02;16.57;;;;;;;6.49;97.81;98768.40;1659240;85;25823;-78
2022/01/05 10:07:04;;;;;;;22.35;15.60;;;;;;;6.47;97.80;98773.93;1658165;85;25933;-79
2022/01/05 10:09:30;;;;;;;23.80;16.25;;;;;;;6.46;97.67;98762.17;1661293;85;25760;-79
2022/01/05 10:11:56;;;;;;;33.83;19.90;;;;;;;6.47;97.83;98767.78;1657023;85;26576;-79
2022/01/05 10:14:22;;;;;;;22.02;14.78;;;;;;;6.48;97.85;98766.24;1659408;85;28995;-79
2022/01/05 10:17:16;;;;;;;24.92;16.85;;;;;;;6.47;97.54;98774.44;1657514;85;25366;-79
2022/01/05 10:19:43;;;;;;;24.02;15.28;;;;;;;6.46;97.52;98775.47;1658110;85;25903;-79
2022/01/05 10:22:42;;;;;;;22.60;15.05;;;;;;;6.45;97.61;98773.31;1658976;85;26980;-79
2022/01/05 10:25:20;;;;;;;24.00;15.63;;;;;;;6.47;97.67;98764.63;1657781;85;26024;-79
2022/01/05 10:27:59;;;;;;;22.27;15.63;;;;;;;6.48;97.72;98762.25;1658241;85;28687;-79
2022/01/05 10:30:45;;;;;;;27.70;15.90;;;;;;;6.49;97.66;98757.25;1658513;85;26138;-79
2022/01/05 10:33:11;;;;;;;25.82;17.80;;;;;;;6.50;97.69;98761.53;1657412;85;25818;-79
2022/01/05 10:35:38;;;;;;;25.27;15.95;;;;;;;6.53;97.72;98761.14;1657790;85;25796;-79
2022/01/05 10:38:09;;;;;;;25.52;18.32;;;;;;;6.54;97.56;98757.97;1654984;86;25846;-78
2022/01/05 10:40:38;;;;;;;23.67;16.12;;;;;;;6.55;97.66;98764.41;1657715;85;27672;-79
2022/01/05 10:43:11;;;;;;;22.87;17.15;;;;;;;6.58;97.67;98756.53;1656034;85;26136;-79
2022/01/05 10:45:44;;;;;;;20.52;15.60;;;;;;;6.59;97.63;98760.81;1656654;85;26210;-79
2022/01/05 10:48:17;;;;;;;22.52;16.23;;;;;;;6.57;97.54;98746.40;1660916;85;26629;-80
2022/01/05 10:50:47;;;;;;;22.30;16.23;;;;;;;6.59;97.67;98741.69;1662280;85;25821;-79
2022/01/05 10:53:19;;;;;;;30.00;15.97;;;;;;;6.65;98.14;98736.08;1656867;85;27486;-80
2022/01/05 10:55:47;;;;;;;21.87;15.70;;;;;;;6.65;98.14;98736.08;1657851;85;26002;-79
2022/01/05 10:58:17;;;;;;;27.77;17.42;;;;;;;6.68;97.96;98733.80;1657428;85;25906;-79
2022/01/05 11:00:50;;;;;;;24.07;15.60;;;;;;;6.70;97.83;98738.41;1656588;85;25976;-79
2022/01/05 11:03:38;;;;;;;23.18;15.30;;;;;;;6.72;97.86;98734.20;1655316;86;26003;-76
2022/01/05 11:06:16;;;;;;;23.30;16.17;;;;;;;6.74;97.91;98732.97;1656803;85;27500;-77
2022/01/05 11:09:00;;;;;;;24.60;16.70;;;;;;;6.72;97.69;98727.55;1657419;86;25904;-79
2022/01/05 11:11:46;;;;;;;25.55;17.67;;;;;;;6.71;97.95;98724.59;1655834;85;25341;-77
2022/01/05 11:14:16;;;;;;;28.40;18.27;;;;;;;6.73;97.95;98715.89;1638617;85;25967;-76
2022/01/05 11:16:48;;;;;;;26.97;17.98;;;;;;;6.73;98.08;98714.56;1657621;85;26113;-77
2022/01/05 11:19:27;;;;;;;25.48;18.30;;;;;;;6.78;98.28;98718.73;1655982;86;27505;-77
2022/01/05 11:22:15;;;;;;;25.68;18.02;;;;;;;6.78;98.27;98711.57;1656291;85;26446;-77
2022/01/05 11:24:48;;;;;;;26.62;18.42;;;;;;;6.82;98.34;98718.11;1661510;85;25875;-77
2022/01/05 11:27:24;;;;;;;30.43;20.97;;;;;;;6.81;98.12;98731.13;1659029;85;25968;-77
2022/01/05 11:29:51;;;;;;;29.35;20.85;;;;;;;6.80;98.24;98732.13;1663553;85;26699;-77
2022/01/05 11:32:24;;;;;;;30.95;19.60;;;;;;;6.78;98.11;98738.69;1657117;85;27505;-77